createdAt,value
2017-07-17T00:00:27.392Z,21.08
2017-07-17T00:00:55.603Z,21.03
2017-07-17T00:01:23.841Z,21
2017-07-17T00:01:52.076Z,21.03
2017-07-17T00:02:19.987Z,20.98
2017-07-17T00:02:48.190Z,21.01
2017-07-17T00:03:16.316Z,21
2017-07-17T00:03:44.269Z,21.03
2017-07-17T00:04:12.424Z,21
2017-07-17T00:04:40.627Z,20.96
2017-07-17T00:05:08.830Z,21.01
2017-07-17T00:05:36.960Z,20.88
2017-07-17T00:06:05.118Z,20.97
2017-07-17T00:06:33.282Z,20.88
2017-07-17T00:07:01.534Z,20.91
2017-07-17T00:07:29.603Z,20.9
2017-07-17T00:07:57.802Z,20.88
2017-07-17T00:08:26.000Z,20.91
2017-07-17T00:08:54.210Z,20.86
2017-07-17T00:09:22.233Z,20.78
2017-07-17T00:09:50.386Z,20.82
2017-07-17T00:10:18.626Z,20.75
2017-07-17T00:10:46.779Z,20.76
2017-07-17T00:11:14.891Z,20.76
2017-07-17T00:11:43.078Z,20.71
2017-07-17T00:12:11.207Z,20.67
2017-07-17T00:12:39.423Z,20.63
2017-07-17T00:13:07.701Z,20.6
2017-07-17T00:13:35.949Z,20.6
2017-07-17T00:14:04.175Z,20.63
2017-07-17T00:14:32.399Z,20.49
2017-07-17T00:15:00.646Z,20.44
2017-07-17T00:15:28.876Z,20.46
2017-07-17T00:15:56.971Z,20.34
2017-07-17T00:16:25.214Z,20.25
2017-07-17T00:16:53.475Z,20.4
2017-07-17T00:17:21.549Z,20.4
2017-07-17T00:17:49.745Z,20.32
2017-07-17T00:18:18.009Z,20.34
2017-07-17T00:18:46.032Z,20.35
2017-07-17T00:19:14.174Z,20.25
2017-07-17T00:19:42.289Z,20.29
2017-07-17T00:20:10.289Z,20.27
2017-07-17T00:20:38.580Z,20.29
2017-07-17T00:21:06.814Z,20.23
2017-07-17T00:21:35.060Z,20.26
2017-07-17T00:22:03.084Z,20.19
2017-07-17T00:22:31.111Z,20.19
2017-07-17T00:22:59.382Z,20.18
2017-07-17T00:23:27.549Z,20.15
2017-07-17T00:23:55.811Z,20.18
2017-07-17T00:24:24.069Z,20.18
2017-07-17T00:24:52.112Z,20.16
2017-07-17T00:25:20.139Z,20.16
2017-07-17T00:25:48.347Z,20.12
2017-07-17T00:26:16.345Z,20.1
2017-07-17T00:26:44.443Z,20.1
2017-07-17T00:27:12.671Z,20.04
2017-07-17T00:27:40.913Z,20.01
2017-07-17T00:28:09.242Z,19.89
2017-07-17T00:28:37.320Z,19.87
2017-07-17T00:29:05.423Z,19.87
2017-07-17T00:29:33.663Z,19.85
2017-07-17T00:30:01.852Z,19.83
2017-07-17T00:30:30.078Z,19.75
2017-07-17T00:30:58.203Z,19.79
2017-07-17T00:31:26.424Z,19.68
2017-07-17T00:31:54.611Z,19.63
2017-07-17T00:32:22.642Z,19.68
2017-07-17T00:32:50.661Z,19.57
2017-07-17T00:33:18.968Z,19.53
2017-07-17T00:33:47.205Z,19.53
2017-07-17T00:34:15.333Z,19.55
2017-07-17T00:34:43.516Z,19.52
2017-07-17T00:35:11.734Z,19.49
2017-07-17T00:35:39.874Z,19.52
2017-07-17T00:36:08.152Z,19.46
2017-07-17T00:36:36.362Z,19.42
2017-07-17T00:37:04.594Z,19.45
2017-07-17T00:37:32.785Z,19.31
2017-07-17T00:38:00.918Z,19.31
2017-07-17T00:38:29.278Z,19.3
2017-07-17T00:38:57.407Z,19.23
2017-07-17T00:39:25.640Z,19.23
2017-07-17T00:39:53.763Z,19.3
2017-07-17T00:40:21.884Z,19.24
2017-07-17T00:40:49.976Z,19.24
2017-07-17T00:41:18.103Z,19.16
2017-07-17T00:41:46.353Z,19.25
2017-07-17T00:42:14.445Z,19.23
2017-07-17T00:42:42.665Z,19.24
2017-07-17T00:43:10.909Z,19.17
2017-07-17T00:43:39.265Z,19.17
2017-07-17T00:44:07.365Z,19.1
2017-07-17T00:44:35.594Z,19.06
2017-07-17T00:45:03.687Z,19.09
2017-07-17T00:45:31.934Z,19.02
2017-07-17T00:46:00.200Z,19.02
2017-07-17T00:46:28.421Z,19.05
2017-07-17T00:46:56.468Z,19.13
2017-07-17T00:47:24.679Z,19.05
2017-07-17T00:47:52.772Z,19.02
2017-07-17T00:48:21.293Z,19.06
2017-07-17T00:48:49.269Z,19
2017-07-17T00:49:17.409Z,19
2017-07-17T00:49:45.663Z,19.05
2017-07-17T00:50:13.834Z,19
2017-07-17T00:50:41.808Z,18.99
2017-07-17T00:51:09.969Z,18.99
2017-07-17T00:51:38.171Z,18.87
2017-07-17T00:52:06.369Z,18.89
2017-07-17T00:52:34.465Z,18.82
2017-07-17T00:53:02.656Z,18.82
2017-07-17T00:53:30.944Z,18.75
2017-07-17T00:53:59.158Z,18.74
2017-07-17T00:54:27.355Z,18.66
2017-07-17T00:54:55.472Z,18.69
2017-07-17T00:55:23.687Z,18.69
2017-07-17T00:55:51.897Z,18.59
2017-07-17T00:56:20.124Z,18.56
2017-07-17T00:56:48.202Z,18.59
2017-07-17T00:57:16.407Z,18.45
2017-07-17T00:57:44.544Z,18.5
2017-07-17T00:58:12.659Z,18.39
2017-07-17T00:58:40.880Z,18.39
2017-07-17T00:59:08.996Z,18.34
2017-07-17T00:59:37.055Z,18.26
2017-07-17T01:00:05.108Z,18.29
2017-07-17T01:00:33.314Z,18.26
2017-07-17T01:01:01.464Z,18.26
2017-07-17T01:01:29.685Z,18.17
2017-07-17T01:01:57.943Z,18.1
2017-07-17T01:02:26.063Z,18.27
2017-07-17T01:02:54.177Z,18.26
2017-07-17T01:03:22.446Z,18.16
2017-07-17T01:03:50.832Z,18.11
2017-07-17T01:04:18.993Z,18.13
2017-07-17T01:04:47.239Z,18.27
2017-07-17T01:05:15.356Z,18.26
2017-07-17T01:05:43.455Z,18.26
2017-07-17T01:06:11.673Z,18.26
2017-07-17T01:06:39.759Z,18.23
2017-07-17T01:07:07.960Z,18.23
2017-07-17T01:07:36.192Z,18.2
2017-07-17T01:08:04.417Z,18.31
2017-07-17T01:08:32.677Z,18.24
2017-07-17T01:09:00.678Z,18.17
2017-07-17T01:09:28.797Z,18.08
2017-07-17T01:09:57.014Z,18.11
2017-07-17T01:10:25.179Z,18.05
2017-07-17T01:10:53.404Z,17.99
2017-07-17T01:11:21.512Z,18.05
2017-07-17T01:11:49.569Z,17.98
2017-07-17T01:12:17.789Z,17.92
2017-07-17T01:12:45.982Z,17.98
2017-07-17T01:13:14.047Z,17.95
2017-07-17T01:13:42.216Z,17.94
2017-07-17T01:14:10.435Z,17.8
2017-07-17T01:14:38.449Z,17.84
2017-07-17T01:15:06.496Z,17.88
2017-07-17T01:15:34.647Z,17.83
2017-07-17T01:16:02.794Z,17.74
2017-07-17T01:16:30.934Z,17.77
2017-07-17T01:16:59.064Z,17.62
2017-07-17T01:17:27.056Z,17.63
2017-07-17T01:17:55.270Z,17.55
2017-07-17T01:18:23.267Z,17.54
2017-07-17T01:18:51.320Z,17.52
2017-07-17T01:19:19.329Z,17.5
2017-07-17T01:19:47.269Z,17.43
2017-07-17T01:20:15.296Z,17.49
2017-07-17T01:20:43.550Z,17.46
2017-07-17T01:21:11.749Z,17.36
2017-07-17T01:21:39.847Z,17.28
2017-07-17T01:22:08.012Z,17.38
2017-07-17T01:22:36.250Z,17.31
2017-07-17T01:23:04.447Z,17.2
2017-07-17T01:23:32.621Z,17.22
2017-07-17T01:24:01.095Z,17.24
2017-07-17T01:24:29.341Z,17.21
2017-07-17T01:24:57.559Z,17.24
2017-07-17T01:25:25.797Z,17.25
2017-07-17T01:25:54.014Z,17.22
2017-07-17T01:26:22.192Z,17.22
2017-07-17T01:26:50.220Z,17.15
2017-07-17T01:27:18.318Z,17.24
2017-07-17T01:27:46.509Z,17.17
2017-07-17T01:28:14.739Z,17.18
2017-07-17T01:28:42.852Z,17.1
2017-07-17T01:29:11.201Z,17.24
2017-07-17T01:29:39.298Z,17.17
2017-07-17T01:30:07.566Z,17.24
2017-07-17T01:30:35.796Z,17.28
2017-07-17T01:31:04.031Z,17.36
2017-07-17T01:31:32.259Z,17.35
2017-07-17T01:32:00.526Z,17.38
2017-07-17T01:32:28.894Z,17.43
2017-07-17T01:32:57.079Z,17.36
2017-07-17T01:33:25.078Z,17.45
2017-07-17T01:33:53.318Z,17.46
2017-07-17T01:34:21.568Z,17.54
2017-07-17T01:34:49.657Z,17.5
2017-07-17T01:35:17.872Z,17.49
2017-07-17T01:35:46.054Z,17.55
2017-07-17T01:36:14.125Z,17.63
2017-07-17T01:36:42.299Z,17.65
2017-07-17T01:37:10.509Z,17.63
2017-07-17T01:37:38.723Z,17.71
2017-07-17T01:38:06.818Z,17.71
2017-07-17T01:38:34.962Z,17.66
2017-07-17T01:39:03.143Z,17.66
2017-07-17T01:39:31.371Z,17.68
2017-07-17T01:39:59.615Z,17.69
2017-07-17T01:40:27.821Z,17.63
2017-07-17T01:40:56.053Z,17.63
2017-07-17T01:41:24.235Z,17.71
2017-07-17T01:41:52.345Z,17.63
2017-07-17T01:42:20.588Z,17.62
2017-07-17T01:42:48.847Z,17.6
2017-07-17T01:43:16.993Z,17.65
2017-07-17T01:43:45.161Z,17.65
2017-07-17T01:44:13.402Z,17.68
2017-07-17T01:44:41.473Z,17.63
2017-07-17T01:45:09.750Z,17.65
2017-07-17T01:45:37.960Z,17.8
2017-07-17T01:46:06.126Z,17.62
2017-07-17T01:46:34.116Z,17.66
2017-07-17T01:47:02.364Z,17.79
2017-07-17T01:47:30.489Z,17.62
2017-07-17T01:47:58.647Z,17.66
2017-07-17T01:48:26.751Z,17.65
2017-07-17T01:48:54.844Z,17.6
2017-07-17T01:49:23.031Z,17.63
2017-07-17T01:49:51.303Z,17.71
2017-07-17T01:50:19.588Z,17.69
2017-07-17T01:50:47.810Z,17.62
2017-07-17T01:51:16.021Z,17.65
2017-07-17T01:51:44.037Z,17.58
2017-07-17T01:52:12.282Z,17.6
2017-07-17T01:52:40.413Z,17.62
2017-07-17T01:53:08.410Z,17.62
2017-07-17T01:53:36.679Z,17.58
2017-07-17T01:54:04.938Z,17.62
2017-07-17T01:54:33.002Z,17.52
2017-07-17T01:55:01.216Z,17.5
2017-07-17T01:55:29.437Z,17.52
2017-07-17T01:55:57.569Z,17.52
2017-07-17T01:56:25.695Z,17.54
2017-07-17T01:56:53.818Z,17.5
2017-07-17T01:57:22.068Z,17.55
2017-07-17T01:57:50.129Z,17.6
2017-07-17T01:58:18.194Z,17.5
2017-07-17T01:58:46.466Z,17.55
2017-07-17T01:59:14.622Z,17.54
2017-07-17T01:59:42.759Z,17.54
2017-07-17T02:00:10.976Z,17.52
2017-07-17T02:00:38.963Z,17.5
2017-07-17T02:01:07.072Z,17.54
2017-07-17T02:01:35.198Z,17.54
2017-07-17T02:02:03.454Z,17.49
2017-07-17T02:02:31.733Z,17.5
2017-07-17T02:03:00.013Z,17.62
2017-07-17T02:03:28.258Z,17.68
2017-07-17T02:03:56.306Z,17.65
2017-07-17T02:04:24.702Z,17.66
2017-07-17T02:04:52.970Z,17.6
2017-07-17T02:05:21.148Z,17.66
2017-07-17T02:05:49.266Z,17.69
2017-07-17T02:06:17.421Z,17.58
2017-07-17T02:06:45.544Z,17.63
2017-07-17T02:07:13.731Z,17.65
2017-07-17T02:07:42.078Z,17.57
2017-07-17T02:08:10.210Z,17.52
2017-07-17T02:08:38.478Z,17.57
2017-07-17T02:09:06.764Z,17.52
2017-07-17T02:09:35.020Z,17.42
2017-07-17T02:10:03.155Z,17.38
2017-07-17T02:10:31.211Z,17.42
2017-07-17T02:10:59.363Z,17.4
2017-07-17T02:11:27.391Z,17.32
2017-07-17T02:11:55.509Z,17.35
2017-07-17T02:12:23.624Z,17.38
2017-07-17T02:12:51.705Z,17.31
2017-07-17T02:13:19.952Z,17.27
2017-07-17T02:13:48.170Z,17.3
2017-07-17T02:14:16.538Z,17.31
2017-07-17T02:14:44.669Z,17.27
2017-07-17T02:15:12.779Z,17.35
2017-07-17T02:15:41.037Z,17.35
2017-07-17T02:16:09.164Z,17.36
2017-07-17T02:16:37.232Z,17.35
2017-07-17T02:17:05.259Z,17.31
2017-07-17T02:17:33.482Z,17.35
2017-07-17T02:18:01.697Z,17.24
2017-07-17T02:18:29.745Z,17.35
2017-07-17T02:18:57.877Z,17.24
2017-07-17T02:19:26.160Z,17.24
2017-07-17T02:19:54.341Z,17.22
2017-07-17T02:20:22.490Z,17.24
2017-07-17T02:20:50.692Z,17.3
2017-07-17T02:21:18.659Z,17.21
2017-07-17T02:21:46.658Z,17.22
2017-07-17T02:22:14.893Z,17.21
2017-07-17T02:22:43.127Z,17.21
2017-07-17T02:23:11.270Z,17.21
2017-07-17T02:23:39.415Z,17.2
2017-07-17T02:24:07.552Z,17.22
2017-07-17T02:24:35.671Z,17.22
2017-07-17T02:25:03.820Z,17.32
2017-07-17T02:25:31.847Z,17.31
2017-07-17T02:25:59.967Z,17.31
2017-07-17T02:26:28.083Z,17.31
2017-07-17T02:26:56.224Z,17.32
2017-07-17T02:27:24.216Z,17.36
2017-07-17T02:27:52.373Z,17.43
2017-07-17T02:28:20.543Z,17.46
2017-07-17T02:28:48.749Z,17.38
2017-07-17T02:29:16.977Z,17.38
2017-07-17T02:29:45.240Z,17.36
2017-07-17T02:30:13.390Z,17.38
2017-07-17T02:30:41.625Z,17.35
2017-07-17T02:31:09.681Z,17.35
2017-07-17T02:31:37.858Z,17.3
2017-07-17T02:32:05.886Z,17.28
2017-07-17T02:32:33.803Z,17.32
2017-07-17T02:33:02.031Z,17.36
2017-07-17T02:33:30.242Z,17.32
2017-07-17T02:33:58.291Z,17.32
2017-07-17T02:34:26.356Z,17.36
2017-07-17T02:34:54.605Z,17.32
2017-07-17T02:35:22.787Z,17.32
2017-07-17T02:35:50.932Z,17.3
2017-07-17T02:36:19.048Z,17.3
2017-07-17T02:36:47.276Z,17.35
2017-07-17T02:37:15.357Z,17.31
2017-07-17T02:37:43.612Z,17.35
2017-07-17T02:38:11.788Z,17.32
2017-07-17T02:38:40.008Z,17.2
2017-07-17T02:39:08.133Z,17.21
2017-07-17T02:39:36.109Z,17.22
2017-07-17T02:40:04.240Z,17.3
2017-07-17T02:40:32.244Z,17.13
2017-07-17T02:41:00.363Z,17.12
2017-07-17T02:41:28.566Z,17.13
2017-07-17T02:41:56.635Z,17.12
2017-07-17T02:42:24.760Z,17.1
2017-07-17T02:42:52.859Z,17.1
2017-07-17T02:43:20.790Z,17.02
2017-07-17T02:43:48.965Z,17.05
2017-07-17T02:44:17.054Z,16.92
2017-07-17T02:44:45.429Z,16.95
2017-07-17T02:45:13.421Z,16.9
2017-07-17T02:45:41.557Z,16.85
2017-07-17T02:46:09.724Z,16.73
2017-07-17T02:46:37.841Z,16.77
2017-07-17T02:47:06.040Z,16.7
2017-07-17T02:47:34.197Z,16.67
2017-07-17T02:48:02.464Z,16.7
2017-07-17T02:48:30.686Z,16.73
2017-07-17T02:48:58.944Z,16.62
2017-07-17T02:49:27.030Z,16.69
2017-07-17T02:49:55.035Z,16.7
2017-07-17T02:50:23.265Z,16.73
2017-07-17T02:50:51.433Z,16.74
2017-07-17T02:51:19.679Z,16.76
2017-07-17T02:51:47.661Z,16.63
2017-07-17T02:52:15.968Z,16.67
2017-07-17T02:52:44.108Z,16.74
2017-07-17T02:53:12.269Z,16.73
2017-07-17T02:53:40.504Z,16.67
2017-07-17T02:54:08.680Z,16.69
2017-07-17T02:54:36.894Z,16.76
2017-07-17T02:55:05.051Z,16.73
2017-07-17T02:55:33.193Z,16.81
2017-07-17T02:56:01.469Z,16.84
2017-07-17T02:56:29.669Z,16.84
2017-07-17T02:56:57.909Z,16.87
2017-07-17T02:57:25.951Z,16.91
2017-07-17T02:57:53.981Z,16.91
2017-07-17T02:58:22.179Z,17
2017-07-17T02:58:50.224Z,16.95
2017-07-17T02:59:18.226Z,16.97
2017-07-17T02:59:46.496Z,16.91
2017-07-17T03:00:14.689Z,16.94
2017-07-17T03:00:42.938Z,16.94
2017-07-17T03:01:11.181Z,16.97
2017-07-17T03:01:39.239Z,16.99
2017-07-17T03:02:07.332Z,16.95
2017-07-17T03:02:35.530Z,16.99
2017-07-17T03:03:03.616Z,16.97
2017-07-17T03:03:31.784Z,16.97
2017-07-17T03:03:59.954Z,16.91
2017-07-17T03:04:28.213Z,17
2017-07-17T03:04:56.326Z,17.06
2017-07-17T03:05:24.521Z,17.07
2017-07-17T03:05:52.699Z,17.15
2017-07-17T03:06:20.869Z,17.12
2017-07-17T03:06:49.081Z,17.17
2017-07-17T03:07:17.262Z,17.12
2017-07-17T03:07:45.406Z,17.3
2017-07-17T03:08:13.646Z,17.24
2017-07-17T03:08:41.716Z,17.21
2017-07-17T03:09:09.944Z,17.24
2017-07-17T03:09:38.114Z,17.21
2017-07-17T03:10:06.355Z,17.2
2017-07-17T03:10:34.618Z,17.22
2017-07-17T03:11:02.780Z,17.21
2017-07-17T03:11:30.724Z,17.24
2017-07-17T03:11:58.945Z,17.21
2017-07-17T03:12:27.075Z,17.18
2017-07-17T03:12:55.215Z,17.17
2017-07-17T03:13:23.333Z,17.2
2017-07-17T03:13:51.517Z,17.12
2017-07-17T03:14:19.668Z,17.09
2017-07-17T03:14:47.781Z,17.06
2017-07-17T03:15:15.996Z,16.99
2017-07-17T03:15:44.032Z,17.09
2017-07-17T03:16:12.255Z,16.95
2017-07-17T03:16:40.323Z,16.95
2017-07-17T03:17:08.354Z,16.9
2017-07-17T03:17:36.291Z,16.94
2017-07-17T03:18:04.217Z,16.99
2017-07-17T03:18:32.350Z,16.99
2017-07-17T03:19:00.787Z,16.94
2017-07-17T03:19:29.011Z,16.9
2017-07-17T03:19:57.135Z,17.02
2017-07-17T03:20:25.147Z,17.02
2017-07-17T03:20:53.271Z,17.05
2017-07-17T03:21:21.314Z,17.12
2017-07-17T03:21:49.251Z,17.12
2017-07-17T03:22:17.403Z,17.18
2017-07-17T03:22:45.613Z,17.15
2017-07-17T03:23:13.740Z,17.15
2017-07-17T03:23:41.955Z,17.2
2017-07-17T03:24:10.069Z,17.18
2017-07-17T03:24:38.111Z,17.13
2017-07-17T03:25:06.446Z,17.12
2017-07-17T03:25:34.591Z,17.12
2017-07-17T03:26:02.807Z,17.13
2017-07-17T03:26:30.933Z,17.1
2017-07-17T03:26:59.169Z,17.05
2017-07-17T03:27:27.200Z,17.07
2017-07-17T03:27:55.304Z,17.03
2017-07-17T03:28:23.550Z,16.94
2017-07-17T03:28:51.752Z,16.91
2017-07-17T03:29:20.011Z,16.97
2017-07-17T03:29:48.006Z,16.91
2017-07-17T03:30:16.322Z,16.9
2017-07-17T03:30:44.324Z,16.87
2017-07-17T03:31:12.337Z,16.82
2017-07-17T03:31:40.444Z,16.8
2017-07-17T03:32:08.442Z,16.8
2017-07-17T03:32:36.506Z,16.76
2017-07-17T03:33:04.617Z,16.69
2017-07-17T03:33:32.772Z,16.76
2017-07-17T03:34:00.921Z,16.72
2017-07-17T03:34:28.923Z,16.76
2017-07-17T03:34:57.150Z,16.7
2017-07-17T03:35:25.354Z,16.7
2017-07-17T03:35:53.535Z,16.72
2017-07-17T03:36:21.655Z,16.8
2017-07-17T03:36:49.819Z,16.8
2017-07-17T03:37:18.055Z,16.88
2017-07-17T03:37:46.032Z,16.81
2017-07-17T03:38:14.123Z,16.88
2017-07-17T03:38:42.125Z,16.91
2017-07-17T03:39:10.253Z,17
2017-07-17T03:39:38.493Z,17.03
2017-07-17T03:40:06.844Z,16.94
2017-07-17T03:40:35.069Z,16.9
2017-07-17T03:41:03.318Z,16.91
2017-07-17T03:41:31.417Z,17.03
2017-07-17T03:41:59.662Z,17.03
2017-07-17T03:42:27.891Z,17.02
2017-07-17T03:42:56.033Z,17.05
2017-07-17T03:43:24.118Z,17.02
2017-07-17T03:43:52.231Z,17.07
2017-07-17T03:44:20.355Z,17.03
2017-07-17T03:44:48.231Z,17.02
2017-07-17T03:45:16.354Z,17.03
2017-07-17T03:45:44.366Z,17.06
2017-07-17T03:46:12.337Z,17.07
2017-07-17T03:46:40.538Z,17.07
2017-07-17T03:47:08.679Z,17.05
2017-07-17T03:47:36.904Z,17.06
2017-07-17T03:48:04.908Z,17.05
2017-07-17T03:48:33.014Z,17.06
2017-07-17T03:49:01.253Z,17.03
2017-07-17T03:49:29.450Z,17.09
2017-07-17T03:49:57.539Z,17.06
2017-07-17T03:50:25.815Z,17.07
2017-07-17T03:50:54.037Z,17.07
2017-07-17T03:51:21.973Z,17.07
2017-07-17T03:51:50.133Z,17.1
2017-07-17T03:52:18.356Z,17.12
2017-07-17T03:52:46.455Z,17.17
2017-07-17T03:53:14.644Z,17.09
2017-07-17T03:53:42.643Z,17.18
2017-07-17T03:54:10.768Z,17.2
2017-07-17T03:54:38.903Z,17.17
2017-07-17T03:55:06.972Z,17.07
2017-07-17T03:55:35.241Z,17.06
2017-07-17T03:56:03.357Z,17.17
2017-07-17T03:56:31.454Z,17.18
2017-07-17T03:56:59.678Z,17.09
2017-07-17T03:57:27.738Z,17.12
2017-07-17T03:57:55.816Z,17.1
2017-07-17T03:58:24.027Z,17.07
2017-07-17T03:58:52.228Z,17.17
2017-07-17T03:59:20.495Z,17.07
2017-07-17T03:59:48.741Z,17.05
2017-07-17T04:00:17.095Z,17.1
2017-07-17T04:00:45.224Z,17.09
2017-07-17T04:01:13.222Z,17.1
2017-07-17T04:01:41.465Z,17.09
2017-07-17T04:02:09.707Z,17.09
2017-07-17T04:02:37.737Z,17.09
2017-07-17T04:03:05.700Z,17.02
2017-07-17T04:03:33.897Z,17.03
2017-07-17T04:04:01.991Z,17.06
2017-07-17T04:04:29.920Z,16.99
2017-07-17T04:04:58.188Z,17.09
2017-07-17T04:05:26.220Z,16.95
2017-07-17T04:05:54.364Z,17.07
2017-07-17T04:06:22.602Z,17.03
2017-07-17T04:06:50.804Z,17
2017-07-17T04:07:18.795Z,16.92
2017-07-17T04:07:46.929Z,17
2017-07-17T04:08:14.978Z,16.97
2017-07-17T04:08:43.140Z,16.87
2017-07-17T04:09:11.213Z,16.94
2017-07-17T04:09:39.233Z,16.87
2017-07-17T04:10:07.415Z,16.88
2017-07-17T04:10:35.493Z,16.84
2017-07-17T04:11:03.619Z,16.87
2017-07-17T04:11:31.660Z,16.77
2017-07-17T04:11:59.806Z,16.8
2017-07-17T04:12:27.956Z,16.77
2017-07-17T04:12:56.225Z,16.69
2017-07-17T04:13:24.466Z,16.7
2017-07-17T04:13:52.548Z,16.73
2017-07-17T04:14:20.805Z,16.76
2017-07-17T04:14:48.875Z,16.67
2017-07-17T04:15:16.943Z,16.74
2017-07-17T04:15:45.303Z,16.62
2017-07-17T04:16:13.501Z,16.63
2017-07-17T04:16:41.705Z,16.62
2017-07-17T04:17:09.961Z,16.66
2017-07-17T04:17:38.102Z,16.62
2017-07-17T04:18:06.131Z,16.7
2017-07-17T04:18:34.246Z,16.73
2017-07-17T04:19:02.464Z,16.69
2017-07-17T04:19:30.475Z,16.7
2017-07-17T04:19:58.561Z,16.73
2017-07-17T04:20:26.703Z,16.69
2017-07-17T04:20:54.844Z,16.7
2017-07-17T04:21:22.971Z,16.73
2017-07-17T04:21:51.269Z,16.76
2017-07-17T04:22:19.480Z,16.67
2017-07-17T04:22:47.689Z,16.67
2017-07-17T04:23:15.808Z,16.73
2017-07-17T04:23:43.934Z,16.69
2017-07-17T04:24:12.088Z,16.66
2017-07-17T04:24:40.308Z,16.62
2017-07-17T04:25:08.564Z,16.59
2017-07-17T04:25:36.854Z,16.69
2017-07-17T04:26:05.082Z,16.55
2017-07-17T04:26:33.236Z,16.58
2017-07-17T04:27:01.456Z,16.59
2017-07-17T04:27:29.488Z,16.54
2017-07-17T04:27:57.688Z,16.44
2017-07-17T04:28:25.903Z,16.44
2017-07-17T04:28:54.087Z,16.42
2017-07-17T04:29:22.338Z,16.36
2017-07-17T04:29:50.554Z,16.36
2017-07-17T04:30:18.674Z,16.32
2017-07-17T04:30:46.919Z,16.29
2017-07-17T04:31:15.053Z,16.26
2017-07-17T04:31:43.161Z,16.26
2017-07-17T04:32:11.383Z,16.13
2017-07-17T04:32:39.411Z,16.16
2017-07-17T04:33:07.540Z,16.04
2017-07-17T04:33:35.780Z,16.13
2017-07-17T04:34:03.750Z,16.08
2017-07-17T04:34:31.754Z,16.11
2017-07-17T04:34:59.604Z,16.04
2017-07-17T04:35:27.644Z,16.06
2017-07-17T04:35:55.897Z,15.92
2017-07-17T04:36:23.926Z,16
2017-07-17T04:36:51.867Z,15.96
2017-07-17T04:37:19.981Z,15.93
2017-07-17T04:37:48.037Z,15.95
2017-07-17T04:38:16.266Z,15.99
2017-07-17T04:38:44.457Z,16
2017-07-17T04:39:12.504Z,16.04
2017-07-17T04:39:40.788Z,15.98
2017-07-17T04:40:08.927Z,16.04
2017-07-17T04:40:37.095Z,16.1
2017-07-17T04:41:05.393Z,16
2017-07-17T04:41:33.435Z,16
2017-07-17T04:42:01.659Z,16.04
2017-07-17T04:42:29.784Z,16.04
2017-07-17T04:42:57.907Z,15.96
2017-07-17T04:43:25.942Z,15.93
2017-07-17T04:43:54.223Z,15.92
2017-07-17T04:44:22.357Z,15.89
2017-07-17T04:44:50.522Z,15.84
2017-07-17T04:45:18.730Z,15.81
2017-07-17T04:45:47.029Z,15.81
2017-07-17T04:46:15.173Z,15.75
2017-07-17T04:46:43.261Z,15.78
2017-07-17T04:47:11.317Z,15.7
2017-07-17T04:47:39.441Z,15.68
2017-07-17T04:48:07.393Z,15.67
2017-07-17T04:48:35.402Z,15.68
2017-07-17T04:49:03.540Z,15.55
2017-07-17T04:49:31.360Z,15.53
2017-07-17T04:49:59.392Z,15.58
2017-07-17T04:50:27.498Z,15.55
2017-07-17T04:50:55.832Z,15.49
2017-07-17T04:51:23.943Z,15.49
2017-07-17T04:51:52.139Z,15.35
2017-07-17T04:52:20.283Z,15.34
2017-07-17T04:52:48.456Z,15.37
2017-07-17T04:53:16.320Z,15.44
2017-07-17T04:53:44.391Z,15.4
2017-07-17T04:54:12.529Z,15.35
2017-07-17T04:54:40.618Z,15.33
2017-07-17T04:55:08.677Z,15.27
2017-07-17T04:55:36.872Z,15.27
2017-07-17T04:56:05.137Z,15.27
2017-07-17T04:56:33.184Z,15.19
2017-07-17T04:57:01.379Z,15.16
2017-07-17T04:57:29.472Z,15.13
2017-07-17T04:57:57.674Z,15.15
2017-07-17T04:58:25.863Z,15.13
2017-07-17T04:58:53.762Z,15.07
2017-07-17T04:59:21.950Z,15.02
2017-07-17T04:59:50.161Z,15.04
2017-07-17T05:00:18.385Z,15.01
2017-07-17T05:00:46.630Z,15.1
2017-07-17T05:01:14.886Z,15.07
2017-07-17T05:01:43.147Z,15.08
2017-07-17T05:02:11.280Z,15.12
2017-07-17T05:02:39.408Z,15.02
2017-07-17T05:03:07.578Z,15.04
2017-07-17T05:03:35.756Z,15.01
2017-07-17T05:04:03.793Z,15
2017-07-17T05:04:32.032Z,14.86
2017-07-17T05:05:00.156Z,14.97
2017-07-17T05:05:28.281Z,14.97
2017-07-17T05:05:56.441Z,14.98
2017-07-17T05:06:24.678Z,15.01
2017-07-17T05:06:52.785Z,14.98
2017-07-17T05:07:21.073Z,14.95
2017-07-17T05:07:49.170Z,14.93
2017-07-17T05:08:17.411Z,14.98
2017-07-17T05:08:45.339Z,14.97
2017-07-17T05:09:13.531Z,14.97
2017-07-17T05:09:41.719Z,14.95
2017-07-17T05:10:09.814Z,14.98
2017-07-17T05:10:37.930Z,15.01
2017-07-17T05:11:06.195Z,15
2017-07-17T05:11:34.315Z,15.01
2017-07-17T05:12:02.434Z,14.97
2017-07-17T05:12:30.450Z,14.93
2017-07-17T05:12:58.722Z,14.98
2017-07-17T05:13:26.603Z,14.9
2017-07-17T05:13:54.645Z,14.89
2017-07-17T05:14:22.892Z,14.93
2017-07-17T05:14:51.026Z,14.93
2017-07-17T05:15:19.225Z,14.82
2017-07-17T05:15:47.304Z,14.89
2017-07-17T05:16:15.688Z,14.82
2017-07-17T05:16:43.535Z,14.87
2017-07-17T05:17:11.678Z,14.83
2017-07-17T05:17:39.930Z,14.83
2017-07-17T05:18:08.183Z,14.83
2017-07-17T05:18:36.272Z,14.82
2017-07-17T05:19:04.490Z,14.83
2017-07-17T05:19:32.596Z,14.82
2017-07-17T05:20:00.613Z,14.89
2017-07-17T05:20:28.730Z,14.75
2017-07-17T05:20:56.843Z,14.75
2017-07-17T05:21:25.056Z,14.69
2017-07-17T05:21:53.184Z,14.79
2017-07-17T05:22:21.442Z,14.71
2017-07-17T05:22:49.460Z,14.75
2017-07-17T05:23:17.496Z,14.7
2017-07-17T05:23:45.703Z,14.71
2017-07-17T05:24:13.846Z,14.7
2017-07-17T05:24:41.973Z,14.64
2017-07-17T05:25:10.094Z,14.64
2017-07-17T05:25:38.382Z,14.6
2017-07-17T05:26:06.573Z,14.56
2017-07-17T05:26:34.934Z,14.61
2017-07-17T05:27:02.973Z,14.61
2017-07-17T05:27:31.180Z,14.51
2017-07-17T05:27:59.330Z,14.53
2017-07-17T05:28:27.541Z,14.53
2017-07-17T05:28:55.743Z,14.48
2017-07-17T05:29:23.858Z,14.52
2017-07-17T05:29:52.068Z,14.52
2017-07-17T05:30:20.296Z,14.49
2017-07-17T05:30:48.383Z,14.51
2017-07-17T05:31:16.640Z,14.46
2017-07-17T05:31:44.687Z,14.45
2017-07-17T05:32:12.808Z,14.46
2017-07-17T05:32:40.955Z,14.49
2017-07-17T05:33:08.903Z,14.42
2017-07-17T05:33:37.162Z,14.44
2017-07-17T05:34:05.248Z,14.39
2017-07-17T05:34:33.339Z,14.41
2017-07-17T05:35:01.500Z,14.34
2017-07-17T05:35:29.680Z,14.3
2017-07-17T05:35:57.799Z,14.26
2017-07-17T05:36:26.134Z,14.21
2017-07-17T05:36:54.311Z,14.21
2017-07-17T05:37:22.452Z,14.15
2017-07-17T05:37:50.580Z,14.2
2017-07-17T05:38:18.841Z,14.19
2017-07-17T05:38:47.073Z,14.15
2017-07-17T05:39:15.267Z,14.19
2017-07-17T05:39:43.474Z,14.21
2017-07-17T05:40:11.677Z,14.19
2017-07-17T05:40:39.786Z,14.2
2017-07-17T05:41:07.879Z,14.15
2017-07-17T05:41:36.132Z,14.13
2017-07-17T05:42:04.266Z,14.15
2017-07-17T05:42:32.486Z,14.23
2017-07-17T05:43:00.518Z,14.21
2017-07-17T05:43:28.635Z,14.16
2017-07-17T05:43:56.887Z,14.2
2017-07-17T05:44:24.972Z,14.21
2017-07-17T05:44:53.073Z,14.2
2017-07-17T05:45:21.010Z,14.16
2017-07-17T05:45:49.146Z,14.15
2017-07-17T05:46:17.326Z,14.13
2017-07-17T05:46:45.720Z,14.2
2017-07-17T05:47:13.793Z,14.16
2017-07-17T05:47:41.840Z,14.08
2017-07-17T05:48:10.081Z,14.08
2017-07-17T05:48:38.117Z,14.13
2017-07-17T05:49:06.215Z,14.02
2017-07-17T05:49:34.232Z,13.94
2017-07-17T05:50:02.517Z,14.08
2017-07-17T05:50:30.557Z,14.02
2017-07-17T05:50:58.666Z,13.97
2017-07-17T05:51:26.811Z,13.97
2017-07-17T05:51:55.276Z,14.02
2017-07-17T05:52:23.478Z,13.95
2017-07-17T05:52:51.766Z,13.95
2017-07-17T05:53:19.878Z,13.94
2017-07-17T05:53:47.986Z,13.9
2017-07-17T05:54:16.124Z,13.91
2017-07-17T05:54:44.268Z,13.88
2017-07-17T05:55:12.384Z,13.9
2017-07-17T05:55:40.632Z,13.93
2017-07-17T05:56:08.790Z,13.91
2017-07-17T05:56:36.933Z,13.91
2017-07-17T05:57:05.205Z,13.88
2017-07-17T05:57:33.374Z,13.9
2017-07-17T05:58:01.582Z,13.93
2017-07-17T05:58:29.822Z,13.87
2017-07-17T05:58:57.831Z,13.9
2017-07-17T05:59:25.969Z,13.94
2017-07-17T05:59:54.085Z,13.99
2017-07-17T06:00:22.234Z,13.99
2017-07-17T06:00:50.300Z,14.02
2017-07-17T06:01:18.528Z,13.99
2017-07-17T06:01:46.750Z,13.91
2017-07-17T06:02:15.017Z,14.01
2017-07-17T06:02:43.218Z,13.99
2017-07-17T06:03:11.374Z,13.97
2017-07-17T06:03:39.381Z,13.95
2017-07-17T06:04:07.641Z,14.01
2017-07-17T06:04:35.641Z,14.01
2017-07-17T06:05:03.802Z,13.97